Time;durP1;ratioP1;P1;durP2;ratioP2;P2;SDS_P1;SDS_P2;PMS_P1;PMS_P2;Temp;Humidity;BMP_temperature;BMP_pressure;BME280_temperature;BME280_humidity;BME280_pressure;Samples;Min_cycle;Max_cycle;Signal;HPM_P1;HPM_P2
2023/06/04 00:02:13;;;;;;;4.00;3.60;;;13.90;99.90;;;;;;5056271;28;20176;-53
2023/06/04 00:04:39;;;;;;;3.80;3.50;;;13.80;99.90;;;;;;5063664;28;20292;-53
2023/06/04 00:07:05;;;;;;;5.83;3.50;;;13.80;99.90;;;;;;5055554;28;20204;-54
2023/06/04 00:09:30;;;;;;;4.30;3.73;;;13.80;99.90;;;;;;5061052;28;20192;-53
2023/06/04 00:11:56;;;;;;;5.50;4.30;;;13.70;99.90;;;;;;5053158;28;20832;-54
2023/06/04 00:14:23;;;;;;;4.47;3.57;;;13.70;99.90;;;;;;5056707;28;20184;-54
2023/06/04 00:16:48;;;;;;;6.70;3.40;;;13.60;99.90;;;;;;5048500;28;20200;-52
2023/06/04 00:19:14;;;;;;;3.40;3.10;;;13.60;99.90;;;;;;5058162;28;20781;-53
2023/06/04 00:21:39;;;;;;;5.00;3.57;;;13.60;99.90;;;;;;5054923;28;20188;-53
2023/06/04 00:24:05;;;;;;;4.10;3.70;;;13.50;99.90;;;;;;5056068;28;20180;-55
2023/06/04 00:26:31;;;;;;;4.17;3.77;;;13.50;99.90;;;;;;5064005;28;20224;-53
2023/06/04 00:28:57;;;;;;;4.50;3.97;;;13.40;99.90;;;;;;5062833;28;20629;-55
2023/06/04 00:31:23;;;;;;;5.40;4.10;;;13.40;99.90;;;;;;5055193;28;20175;-53
2023/06/04 00:33:49;;;;;;;4.77;4.30;;;13.40;99.90;;;;;;5049968;28;20195;-54
2023/06/04 00:36:14;;;;;;;4.00;3.60;;;13.30;99.90;;;;;;5059230;28;20950;-54
2023/06/04 00:38:40;;;;;;;4.30;3.90;;;13.30;99.90;;;;;;5057521;28;20180;-54
2023/06/04 00:41:05;;;;;;;3.47;3.17;;;13.30;99.90;;;;;;5067293;28;20190;-55
2023/06/04 00:43:32;;;;;;;5.50;3.37;;;13.20;99.90;;;;;;5056931;28;20207;-53
2023/06/04 00:45:58;;;;;;;4.50;3.90;;;13.20;99.90;;;;;;5053818;28;20227;-54
2023/06/04 00:48:27;;;;;;;5.50;3.50;;;13.20;99.90;;;;;;5056407;28;20453;-54
2023/06/04 00:50:54;;;;;;;3.47;3.17;;;13.10;99.90;;;;;;5058163;28;20944;-53
2023/06/04 00:53:21;;;;;;;5.10;3.50;;;13.10;99.90;;;;;;5054259;28;20481;-54
2023/06/04 00:55:46;;;;;;;3.47;3.17;;;13.00;99.90;;;;;;5058051;28;20453;-53
2023/06/04 00:58:12;;;;;;;3.70;3.13;;;13.00;99.90;;;;;;5061016;28;20434;-54
2023/06/04 01:00:39;;;;;;;5.00;3.40;;;13.00;99.90;;;;;;5055371;28;20299;-55
2023/06/04 01:03:14;;;;;;;3.67;3.30;;;12.90;99.90;;;;;;5055123;28;20500;-54
2023/06/04 01:05:49;;;;;;;3.67;2.80;;;13.00;99.90;;;;;;5057841;28;20524;-53
2023/06/04 01:08:15;;;;;;;3.37;3.07;;;12.90;99.90;;;;;;5070589;28;20475;-54
2023/06/04 01:10:51;;;;;;;2.80;2.60;;;12.80;99.90;;;;;;5046305;28;21476;-52
2023/06/04 01:13:17;;;;;;;4.20;3.10;;;12.70;99.90;;;;;;5068575;28;20173;-55
2023/06/04 01:15:43;;;;;;;3.90;2.80;;;12.70;99.90;;;;;;5060633;28;20481;-54
2023/06/04 01:18:09;;;;;;;4.07;3.00;;;12.60;99.90;;;;;;5073058;28;20187;-53
2023/06/04 01:20:42;;;;;;;3.40;3.07;;;12.60;99.90;;;;;;5065725;28;20543;-53
2023/06/04 01:23:28;;;;;;;3.43;2.50;;;12.60;99.90;;;;;;5058159;28;20518;-53
2023/06/04 01:25:57;;;;;;;7.30;2.57;;;12.50;99.90;;;;;;5064876;28;20465;-53
2023/06/04 01:28:23;;;;;;;4.17;3.17;;;12.60;99.90;;;;;;5073584;28;20449;-54
2023/06/04 01:30:50;;;;;;;3.27;2.60;;;12.60;99.90;;;;;;5057466;28;20450;-53
2023/06/04 01:33:18;;;;;;;2.73;2.43;;;12.50;99.90;;;;;;5057518;28;20240;-55
2023/06/04 01:35:44;;;;;;;4.00;2.97;;;12.50;99.90;;;;;;5068123;28;20784;-54
2023/06/04 01:38:10;;;;;;;3.57;2.87;;;12.40;99.90;;;;;;5063804;28;20515;-53
2023/06/04 01:40:36;;;;;;;4.67;3.10;;;12.30;99.90;;;;;;5062363;28;20271;-53
2023/06/04 01:43:01;;;;;;;4.10;2.70;;;12.30;99.90;;;;;;5056218;28;20960;-52
2023/06/04 01:45:31;;;;;;;3.77;3.13;;;12.30;99.90;;;;;;5059210;28;20477;-54
2023/06/04 01:47:56;;;;;;;3.73;3.10;;;12.20;99.90;;;;;;5056346;28;20192;-53
2023/06/04 01:50:22;;;;;;;3.30;3.00;;;12.20;99.90;;;;;;5055153;28;20431;-55
2023/06/04 01:52:49;;;;;;;2.80;2.60;;;12.20;99.90;;;;;;5056827;28;20439;-54
2023/06/04 01:55:16;;;;;;;3.50;3.20;;;12.20;99.90;;;;;;5055004;28;20440;-53
2023/06/04 01:57:47;;;;;;;4.53;2.97;;;12.20;99.90;;;;;;5044228;28;20513;-52
2023/06/04 02:00:14;;;;;;;4.00;3.10;;;12.10;99.90;;;;;;5061121;28;20474;-53
2023/06/04 02:02:42;;;;;;;5.50;3.20;;;12.20;99.90;;;;;;5063963;28;20447;-56
2023/06/04 02:05:08;;;;;;;4.27;3.07;;;12.20;99.90;;;;;;5059548;28;20909;-53
2023/06/04 02:07:44;;;;;;;4.40;3.50;;;12.20;99.90;;;;;;5058468;28;20443;-54
2023/06/04 02:10:11;;;;;;;3.57;3.10;;;12.10;99.90;;;;;;5052260;28;20442;-52
2023/06/04 02:12:39;;;;;;;5.23;3.17;;;12.00;99.90;;;;;;5063401;28;20955;-55
2023/06/04 02:15:06;;;;;;;3.00;2.80;;;12.00;99.90;;;;;;5065007;28;20430;-54
2023/06/04 02:17:37;;;;;;;4.93;2.70;;;11.90;99.90;;;;;;5063869;28;20882;-54
2023/06/04 02:20:04;;;;;;;3.30;3.00;;;11.90;99.90;;;;;;5062738;28;20542;-54
2023/06/04 02:22:30;;;;;;;4.53;3.33;;;11.90;99.90;;;;;;5059756;28;20489;-54
2023/06/04 02:24:55;;;;;;;3.50;2.77;;;11.90;99.90;;;;;;5060574;28;20795;-52
2023/06/04 02:27:21;;;;;;;5.60;3.20;;;11.90;99.90;;;;;;5062509;28;20665;-54
2023/06/04 02:29:47;;;;;;;3.40;2.90;;;11.80;99.90;;;;;;5062618;28;20215;-54
2023/06/04 02:32:13;;;;;;;3.33;2.90;;;11.70;99.90;;;;;;5062580;28;20857;-53
2023/06/04 02:34:39;;;;;;;3.33;2.67;;;11.70;99.90;;;;;;5060239;28;20181;-55
2023/06/04 02:37:05;;;;;;;3.10;2.80;;;11.60;99.90;;;;;;5060292;28;20439;-55
2023/06/04 02:39:31;;;;;;;5.13;2.63;;;11.50;99.90;;;;;;5061659;28;20191;-53
2023/06/04 02:41:56;;;;;;;3.17;2.80;;;11.50;99.90;;;;;;5058470;28;20441;-53
2023/06/04 02:44:22;;;;;;;3.97;2.83;;;11.50;99.90;;;;;;5058452;28;20268;-54
2023/06/04 02:46:47;;;;;;;2.97;2.67;;;11.50;99.90;;;;;;5060560;28;20282;-54
2023/06/04 02:49:13;;;;;;;3.10;2.67;;;11.50;99.90;;;;;;5063027;28;20180;-53
2023/06/04 02:51:42;;;;;;;3.10;2.63;;;11.50;99.90;;;;;;5059050;28;20734;-53
2023/06/04 02:54:08;;;;;;;3.30;2.60;;;11.40;99.90;;;;;;5058109;28;20221;-54
2023/06/04 02:56:36;;;;;;;3.07;2.53;;;11.40;99.90;;;;;;5063752;28;20462;-54
2023/06/04 02:59:02;;;;;;;4.23;3.63;;;11.50;99.90;;;;;;5063441;28;20528;-55
2023/06/04 03:01:27;;;;;;;2.83;2.63;;;11.40;99.90;;;;;;5060578;28;20451;-52
2023/06/04 03:03:54;;;;;;;3.73;2.90;;;11.40;99.90;;;;;;5063953;28;20457;-54
2023/06/04 03:06:21;;;;;;;3.30;2.50;;;11.40;99.90;;;;;;5061259;28;20212;-56
2023/06/04 03:08:48;;;;;;;5.40;2.80;;;11.40;99.90;;;;;;5059304;28;20439;-52
2023/06/04 03:11:14;;;;;;;3.80;2.33;;;11.30;99.90;;;;;;5057272;28;20439;-54
2023/06/04 03:13:40;;;;;;;3.70;2.50;;;11.40;99.90;;;;;;5053687;28;20446;-53
2023/06/04 03:16:09;;;;;;;4.83;2.37;;;11.30;99.90;;;;;;5064484;28;20188;-53
2023/06/04 03:18:42;;;;;;;3.33;2.60;;;11.30;99.90;;;;;;5066302;28;20794;-53
2023/06/04 03:21:08;;;;;;;3.37;2.50;;;11.30;99.90;;;;;;5062513;28;20493;-55
2023/06/04 03:23:35;;;;;;;3.70;2.67;;;11.40;99.90;;;;;;5064335;28;20450;-54
2023/06/04 03:26:02;;;;;;;3.33;2.67;;;11.30;99.90;;;;;;5055742;28;20458;-53
2023/06/04 03:28:28;;;;;;;6.23;2.70;;;11.50;99.90;;;;;;5061503;28;20438;-52
2023/06/04 03:30:53;;;;;;;2.73;2.50;;;11.60;99.90;;;;;;5062705;28;20442;-53
2023/06/04 03:33:19;;;;;;;2.67;2.47;;;11.80;99.90;;;;;;5060272;28;20234;-55
2023/06/04 03:35:45;;;;;;;4.37;2.80;;;12.10;99.90;;;;;;5056901;28;20180;-53
2023/06/04 03:38:11;;;;;;;2.40;2.20;;;12.20;99.90;;;;;;5043625;28;20450;-53
2023/06/04 03:40:37;;;;;;;3.83;2.73;;;12.30;99.90;;;;;;5056075;28;20654;-53
2023/06/04 03:43:04;;;;;;;3.90;2.53;;;12.60;99.90;;;;;;5058122;28;20445;-54
2023/06/04 03:45:30;;;;;;;4.70;2.33;;;12.70;99.90;;;;;;5050846;28;20217;-53
2023/06/04 03:47:56;;;;;;;3.13;2.53;;;12.90;99.90;;;;;;5062220;28;20438;-52
2023/06/04 03:50:21;;;;;;;2.73;2.20;;;13.00;99.90;;;;;;5052574;28;20226;-54
2023/06/04 03:52:48;;;;;;;12.70;2.20;;;12.80;99.90;;;;;;5058777;28;20200;-54
2023/06/04 03:55:14;;;;;;;2.87;2.43;;;12.60;99.90;;;;;;5056367;28;20534;-53
2023/06/04 03:57:39;;;;;;;3.50;2.73;;;12.40;99.90;;;;;;5061838;28;20451;-54
2023/06/04 04:00:13;;;;;;;4.73;3.23;;;12.40;99.90;;;;;;5059623;28;20276;-54
2023/06/04 04:02:39;;;;;;;3.80;2.13;;;12.40;99.90;;;;;;5054718;28;20192;-54
2023/06/04 04:05:06;;;;;;;2.60;2.27;;;12.30;99.90;;;;;;5051973;28;20534;-54
2023/06/04 04:07:31;;;;;;;2.80;2.00;;;12.20;99.90;;;;;;5067648;28;20482;-53
2023/06/04 04:09:57;;;;;;;4.33;2.50;;;12.10;99.90;;;;;;5053740;28;20581;-54
2023/06/04 04:12:22;;;;;;;2.90;2.60;;;12.10;99.90;;;;;;5054176;28;20203;-55
2023/06/04 04:14:48;;;;;;;2.47;2.27;;;12.00;99.90;;;;;;5058436;28;20192;-53
2023/06/04 04:17:14;;;;;;;2.60;2.40;;;12.00;99.90;;;;;;5049866;28;20191;-53
2023/06/04 04:19:40;;;;;;;4.60;2.20;;;12.00;99.90;;;;;;5052510;28;20191;-55
2023/06/04 04:22:06;;;;;;;8.70;2.47;;;12.00;99.90;;;;;;5056326;28;20438;-53
2023/06/04 04:24:34;;;;;;;3.37;2.47;;;12.00;99.90;;;;;;5062598;28;20222;-55
2023/06/04 04:27:00;;;;;;;4.20;2.40;;;11.90;99.90;;;;;;5057809;28;20203;-53
2023/06/04 04:29:27;;;;;;;3.40;2.30;;;12.00;99.90;;;;;;5060225;28;20935;-53
2023/06/04 04:31:56;;;;;;;3.10;2.30;;;12.00;99.90;;;;;;5056155;28;20536;-53
2023/06/04 04:34:25;;;;;;;4.40;2.33;;;12.00;99.90;;;;;;5059578;28;20446;-54
2023/06/04 04:36:52;;;;;;;2.33;2.00;;;12.00;99.90;;;;;;5055827;28;20480;-54
2023/06/04 04:39:24;;;;;;;2.40;2.20;;;12.00;99.90;;;;;;5058046;28;20433;-56
2023/06/04 04:41:51;;;;;;;2.57;1.83;;;12.00;99.90;;;;;;5040243;28;20438;-53
2023/06/04 04:44:17;;;;;;;3.67;2.30;;;12.10;99.90;;;;;;5063257;28;20449;-55
2023/06/04 04:46:43;;;;;;;2.50;2.30;;;12.10;99.90;;;;;;5059039;28;20817;-55
2023/06/04 04:49:08;;;;;;;4.30;2.37;;;12.20;99.90;;;;;;5061209;28;20457;-54
2023/06/04 04:51:35;;;;;;;4.90;2.60;;;12.30;99.90;;;;;;5066109;28;20446;-54
2023/06/04 04:54:00;;;;;;;2.20;2.00;;;12.30;99.90;;;;;;5068218;28;20184;-54
2023/06/04 04:56:27;;;;;;;4.97;2.27;;;12.40;99.90;;;;;;5059133;28;20538;-53
2023/06/04 04:58:53;;;;;;;2.80;2.07;;;12.40;99.90;;;;;;5052850;28;20224;-55
2023/06/04 05:01:18;;;;;;;3.00;1.97;;;12.50;99.90;;;;;;5066638;28;20947;-53
2023/06/04 05:03:44;;;;;;;2.73;2.20;;;12.50;99.90;;;;;;5069779;28;20439;-55
2023/06/04 05:06:10;;;;;;;2.30;2.00;;;12.60;99.90;;;;;;5059362;28;20686;-53
2023/06/04 05:08:36;;;;;;;3.83;2.40;;;12.70;99.90;;;;;;5059856;28;20172;-56
2023/06/04 05:11:01;;;;;;;5.40;2.40;;;12.90;99.90;;;;;;5057456;28;20262;-53
2023/06/04 05:13:27;;;;;;;3.10;1.97;;;12.90;99.90;;;;;;5065479;28;20176;-53
2023/06/04 05:15:53;;;;;;;2.00;1.80;;;13.00;99.90;;;;;;5063473;28;20197;-53
2023/06/04 05:18:26;;;;;;;2.33;2.13;;;13.20;99.90;;;;;;5061912;28;20184;-55
2023/06/04 05:20:52;;;;;;;2.17;1.93;;;13.30;99.90;;;;;;5059211;28;20226;-53
2023/06/04 05:23:17;;;;;;;2.60;2.30;;;13.40;99.90;;;;;;5054157;28;20947;-53
2023/06/04 05:25:43;;;;;;;3.90;2.50;;;13.50;99.90;;;;;;5063589;28;20208;-54
2023/06/04 05:28:08;;;;;;;4.17;2.30;;;13.60;99.90;;;;;;5049900;28;20230;-53
2023/06/04 05:30:34;;;;;;;2.33;2.13;;;13.60;99.90;;;;;;5069630;28;20176;-53
2023/06/04 05:33:00;;;;;;;4.13;2.10;;;13.70;99.90;;;;;;5055516;28;20190;-54
2023/06/04 05:35:25;;;;;;;3.63;2.60;;;13.90;99.90;;;;;;5068438;28;20181;-55
2023/06/04 05:37:54;;;;;;;2.83;2.00;;;13.90;99.90;;;;;;5058240;28;20223;-54
2023/06/04 05:40:22;;;;;;;2.47;2.07;;;14.10;99.90;;;;;;5057740;28;20195;-53
2023/06/04 05:42:48;;;;;;;3.30;2.53;;;14.30;99.90;;;;;;5067677;28;20438;-55
2023/06/04 05:45:14;;;;;;;2.90;2.10;;;14.40;99.90;;;;;;5060780;28;20445;-53
2023/06/04 05:47:40;;;;;;;3.00;2.10;;;14.50;99.90;;;;;;5060589;28;20443;-53
2023/06/04 05:50:06;;;;;;;3.30;2.30;;;14.60;99.90;;;;;;5063195;28;20191;-52
2023/06/04 05:52:34;;;;;;;3.77;2.30;;;14.60;99.90;;;;;;5057773;28;20296;-53
2023/06/04 05:55:00;;;;;;;2.37;2.10;;;14.60;99.90;;;;;;5056082;28;20671;-54
2023/06/04 05:57:25;;;;;;;4.77;3.03;;;14.70;99.90;;;;;;5058720;28;20577;-53
2023/06/04 05:59:51;;;;;;;4.50;2.37;;;14.80;99.90;;;;;;5060102;28;20475;-55
2023/06/04 06:02:17;;;;;;;4.03;2.40;;;15.00;99.90;;;;;;5060602;28;20539;-54
2023/06/04 06:04:42;;;;;;;2.50;2.10;;;15.10;99.90;;;;;;5061374;28;20322;-55
2023/06/04 06:07:08;;;;;;;2.90;2.20;;;15.30;99.90;;;;;;5061794;28;20291;-54
2023/06/04 06:09:36;;;;;;;2.73;2.00;;;16.00;99.90;;;;;;5059553;28;20173;-55
2023/06/04 06:12:01;;;;;;;2.47;2.10;;;15.30;99.90;;;;;;5051789;28;20481;-54
2023/06/04 06:14:27;;;;;;;2.57;2.10;;;15.30;99.90;;;;;;5062104;28;20438;-54
2023/06/04 06:16:53;;;;;;;3.77;2.20;;;15.30;99.90;;;;;;5054953;28;20196;-53
2023/06/04 06:19:18;;;;;;;2.40;2.00;;;15.40;99.90;;;;;;5058927;28;20189;-53
2023/06/04 06:21:44;;;;;;;2.77;2.00;;;15.60;99.90;;;;;;5056524;28;20463;-53
2023/06/04 06:24:10;;;;;;;4.90;3.60;;;15.70;99.90;;;;;;5049960;28;20574;-54
2023/06/04 06:26:36;;;;;;;4.17;3.27;;;15.80;99.90;;;;;;5060254;28;20958;-53
2023/06/04 06:29:01;;;;;;;6.00;2.40;;;16.00;99.90;;;;;;5058732;28;20183;-53
2023/06/04 06:31:27;;;;;;;4.40;2.23;;;16.10;99.90;;;;;;5058311;28;20181;-53
2023/06/04 06:33:53;;;;;;;4.70;2.27;;;16.30;99.90;;;;;;5058221;28;20180;-53
2023/06/04 06:36:18;;;;;;;3.40;2.47;;;16.40;99.90;;;;;;5060715;28;20326;-54
2023/06/04 06:38:47;;;;;;;3.60;2.30;;;16.50;99.90;;;;;;5063422;28;20274;-54
2023/06/04 06:41:13;;;;;;;2.90;2.60;;;16.60;99.90;;;;;;5065911;28;20553;-54
2023/06/04 06:43:38;;;;;;;4.70;2.13;;;16.90;99.90;;;;;;5062289;28;20446;-54
2023/06/04 06:46:04;;;;;;;4.63;1.83;;;17.20;99.90;;;;;;5055766;28;20196;-55
2023/06/04 06:48:29;;;;;;;4.40;2.20;;;17.20;99.90;;;;;;5056126;28;20218;-54
2023/06/04 06:50:55;;;;;;;4.40;2.10;;;17.40;99.90;;;;;;5055953;28;20197;-54
2023/06/04 06:53:21;;;;;;;2.20;2.00;;;17.50;99.90;;;;;;5057467;28;20649;-53
2023/06/04 06:55:47;;;;;;;3.67;2.40;;;17.60;99.90;;;;;;5063528;28;20203;-53
2023/06/04 06:58:12;;;;;;;3.63;2.47;;;17.80;99.90;;;;;;5062714;28;20447;-54
2023/06/04 07:00:38;;;;;;;7.30;2.93;;;17.80;99.90;;;;;;5065382;28;20211;-54
2023/06/04 07:03:04;;;;;;;3.33;2.07;;;18.00;99.90;;;;;;5062050;28;20184;-54
2023/06/04 07:05:30;;;;;;;2.47;2.10;;;18.20;99.90;;;;;;5059689;28;20195;-53
2023/06/04 07:07:57;;;;;;;6.20;2.53;;;18.20;99.90;;;;;;5056463;28;20217;-54
2023/06/04 07:10:24;;;;;;;2.60;2.13;;;18.10;99.90;;;;;;5058699;28;20524;-53
2023/06/04 07:12:50;;;;;;;2.73;2.40;;;18.10;99.90;;;;;;5067369;28;20434;-54
2023/06/04 07:15:15;;;;;;;3.57;2.33;;;18.30;99.90;;;;;;5057107;28;20951;-55
2023/06/04 07:17:41;;;;;;;3.87;2.10;;;18.40;99.90;;;;;;5058579;28;20186;-54
2023/06/04 07:20:09;;;;;;;1.93;1.73;;;18.20;99.90;;;;;;5058853;28;20568;-55
2023/06/04 07:22:35;;;;;;;2.60;2.07;;;18.20;99.90;;;;;;5053621;28;20212;-53
2023/06/04 07:25:00;;;;;;;3.87;2.13;;;18.40;99.90;;;;;;5061295;28;20451;-55
2023/06/04 07:27:26;;;;;;;4.70;2.20;;;18.80;99.90;;;;;;5053823;28;20827;-55
2023/06/04 07:29:52;;;;;;;3.33;2.60;;;19.00;99.90;;;;;;5056184;28;20208;-53
2023/06/04 07:32:17;;;;;;;3.00;2.17;;;19.20;99.90;;;;;;5058362;28;20183;-53
2023/06/04 07:34:43;;;;;;;4.07;2.30;;;19.30;99.90;;;;;;5045962;28;20587;-53
2023/06/04 07:37:09;;;;;;;4.00;2.50;;;19.60;99.90;;;;;;5052903;28;20251;-55
2023/06/04 07:39:35;;;;;;;2.63;2.23;;;19.70;99.90;;;;;;5047433;28;20574;-54
2023/06/04 07:42:01;;;;;;;4.83;2.03;;;19.80;99.90;;;;;;5068379;28;20443;-53
2023/06/04 07:44:26;;;;;;;2.23;1.67;;;19.70;99.90;;;;;;5055242;28;20304;-53
2023/06/04 07:46:52;;;;;;;2.93;2.00;;;19.70;99.90;;;;;;5066130;28;20204;-54
2023/06/04 07:49:17;;;;;;;3.67;2.00;;;19.80;99.90;;;;;;5063947;28;20177;-53
2023/06/04 07:51:43;;;;;;;2.33;2.07;;;20.30;99.90;;;;;;5052617;28;20419;-54
2023/06/04 07:54:10;;;;;;;3.43;2.50;;;20.30;99.90;;;;;;5060388;28;20182;-53
2023/06/04 07:56:35;;;;;;;3.27;2.10;;;20.60;99.90;;;;;;5055711;28;20532;-53
2023/06/04 07:59:01;;;;;;;3.23;2.17;;;20.70;99.90;;;;;;5057972;28;20478;-54
2023/06/04 08:01:27;;;;;;;3.73;2.00;;;20.50;99.90;;;;;;5054997;28;20182;-54
2023/06/04 08:03:53;;;;;;;3.47;1.90;;;20.40;99.90;;;;;;5058395;28;20272;-54
2023/06/04 08:06:18;;;;;;;2.03;1.83;;;20.50;99.90;;;;;;5055437;28;20206;-54
2023/06/04 08:08:45;;;;;;;3.30;2.53;;;20.70;99.90;;;;;;5057223;28;20644;-52
2023/06/04 08:11:14;;;;;;;8.20;2.27;;;20.90;99.90;;;;;;5060033;28;20180;-54
2023/06/04 08:13:40;;;;;;;2.20;2.00;;;20.90;99.90;;;;;;5054486;28;20441;-55
2023/06/04 08:16:06;;;;;;;2.57;2.03;;;21.10;99.90;;;;;;5054192;28;20776;-56
2023/06/04 08:18:31;;;;;;;3.80;1.90;;;21.10;99.90;;;;;;5057623;28;20535;-54
2023/06/04 08:20:57;;;;;;;2.63;2.00;;;20.90;99.90;;;;;;5048084;28;20188;-53
2023/06/04 08:23:23;;;;;;;3.83;2.27;;;20.90;99.90;;;;;;5055245;28;20198;-55
2023/06/04 08:25:48;;;;;;;6.37;2.20;;;21.20;99.90;;;;;;5053305;28;20785;-55
2023/06/04 08:28:15;;;;;;;3.20;1.60;;;21.40;99.90;;;;;;5043929;28;20195;-54
2023/06/04 08:30:42;;;;;;;2.70;2.00;;;21.40;99.90;;;;;;5054052;28;20645;-55
2023/06/04 08:33:08;;;;;;;3.17;1.80;;;21.60;99.90;;;;;;5059419;28;20964;-53
2023/06/04 08:35:33;;;;;;;3.53;2.20;;;21.90;99.90;;;;;;5068551;28;20447;-53
2023/06/04 08:37:59;;;;;;;2.60;1.70;;;22.30;99.90;;;;;;5051513;28;20267;-54
2023/06/04 08:40:25;;;;;;;3.20;1.90;;;22.50;99.90;;;;;;5055385;28;20245;-54
2023/06/04 08:42:58;;;;;;;4.43;1.63;;;22.50;99.90;;;;;;5050852;28;20196;-54
2023/06/04 08:45:24;;;;;;;3.80;2.00;;;22.50;99.90;;;;;;5054147;28;20959;-54
2023/06/04 08:47:51;;;;;;;2.80;1.60;;;22.50;99.90;;;;;;5044823;28;20981;-56
2023/06/04 08:50:22;;;;;;;2.00;1.40;;;22.60;99.90;;;;;;5061206;28;20665;-54
2023/06/04 08:52:53;;;;;;;2.00;1.43;;;22.70;99.90;;;;;;5051308;28;20450;-54
2023/06/04 08:55:19;;;;;;;2.10;1.90;;;22.70;99.90;;;;;;5046087;28;20493;-54
2023/06/04 08:57:46;;;;;;;2.20;1.60;;;22.70;99.90;;;;;;5061127;28;20454;-53
2023/06/04 09:00:12;;;;;;;2.87;1.23;;;22.90;99.90;;;;;;5056708;28;20486;-54
2023/06/04 09:02:38;;;;;;;1.50;1.10;;;22.90;99.90;;;;;;5056409;28;20499;-54
2023/06/04 09:05:09;;;;;;;2.07;1.60;;;22.60;99.90;;;;;;5053020;28;20445;-55
2023/06/04 09:07:41;;;;;;;4.60;1.10;;;22.80;99.90;;;;;;5054683;28;20828;-53
2023/06/04 09:10:08;;;;;;;4.87;1.40;;;22.70;99.90;;;;;;5063407;28;20443;-53
2023/06/04 09:12:38;;;;;;;2.33;1.53;;;22.70;99.90;;;;;;5053844;28;20453;-54
2023/06/04 09:15:03;;;;;;;4.70;1.33;;;22.70;99.90;;;;;;5055301;28;20518;-54
2023/06/04 09:17:29;;;;;;;1.80;1.33;;;23.00;99.90;;;;;;5061734;28;20884;-54
2023/06/04 09:19:55;;;;;;;2.03;1.27;;;23.50;99.90;;;;;;5051967;28;20205;-53
2023/06/04 09:22:32;;;;;;;2.30;1.50;;;23.40;99.90;;;;;;5055118;28;20612;-54
2023/06/04 09:24:58;;;;;;;5.10;1.60;;;23.40;99.90;;;;;;5058468;28;20203;-54
2023/06/04 09:27:25;;;;;;;4.20;1.60;;;23.10;99.90;;;;;;5060571;28;20544;-54
2023/06/04 09:30:00;;;;;;;1.70;1.50;;;23.10;99.90;;;;;;5055841;28;20267;-55
2023/06/04 09:32:27;;;;;;;1.80;1.33;;;23.10;99.90;;;;;;5044043;28;20477;-54
2023/06/04 09:34:54;;;;;;;3.60;1.17;;;23.00;99.90;;;;;;5051899;28;20446;-55
2023/06/04 09:37:22;;;;;;;4.30;1.30;;;22.90;99.90;;;;;;5065266;28;20541;-55
2023/06/04 09:39:55;;;;;;;2.40;1.10;;;22.90;99.90;;;;;;5060219;28;20453;-55
2023/06/04 09:42:22;;;;;;;2.93;1.87;;;23.00;99.90;;;;;;5043008;28;20566;-56
2023/06/04 09:44:47;;;;;;;2.10;1.60;;;23.30;99.90;;;;;;5056032;28;20801;-54
2023/06/04 09:47:13;;;;;;;1.90;1.30;;;23.30;99.90;;;;;;5054150;28;20471;-54
2023/06/04 09:49:46;;;;;;;1.63;1.53;;;22.90;99.90;;;;;;5064680;28;20636;-54
2023/06/04 09:52:13;;;;;;;1.63;1.40;;;22.90;99.90;;;;;;5050610;28;20454;-55
2023/06/04 09:54:41;;;;;;;1.53;1.30;;;23.00;99.90;;;;;;5060261;28;20494;-53
2023/06/04 09:57:18;;;;;;;1.97;1.40;;;23.10;99.90;;;;;;5059732;28;20510;-54
2023/06/04 09:59:45;;;;;;;2.87;1.57;;;23.10;99.90;;;;;;5058133;28;20605;-54
2023/06/04 10:02:19;;;;;;;3.30;1.50;;;23.30;99.90;;;;;;5065653;28;20893;-54
2023/06/04 10:04:58;;;;;;;2.63;1.60;;;23.40;99.90;;;;;;5058379;28;20440;-55
2023/06/04 10:07:26;;;;;;;1.70;1.60;;;23.60;99.90;;;;;;5062648;28;21061;-54
2023/06/04 10:09:52;;;;;;;1.87;1.40;;;23.40;99.90;;;;;;5063037;28;20435;-54
2023/06/04 10:12:26;;;;;;;2.73;1.37;;;23.10;99.90;;;;;;5039416;28;20962;-55
2023/06/04 10:14:56;;;;;;;1.60;1.30;;;23.00;99.90;;;;;;5054283;28;20474;-53
2023/06/04 10:17:24;;;;;;;2.13;1.50;;;22.80;99.90;;;;;;5061988;28;20988;-54
2023/06/04 10:19:53;;;;;;;2.50;1.70;;;22.90;99.90;;;;;;5061200;28;20451;-54
2023/06/04 10:22:20;;;;;;;2.00;1.50;;;23.10;99.90;;;;;;5052273;28;20578;-53
2023/06/04 10:24:46;;;;;;;4.00;1.40;;;23.40;99.90;;;;;;5055176;28;20976;-54
2023/06/04 10:27:12;;;;;;;1.93;1.57;;;23.70;99.90;;;;;;5064789;28;20550;-54
2023/06/04 10:29:39;;;;;;;2.00;1.30;;;23.20;99.90;;;;;;5062275;28;20454;-54
2023/06/04 10:32:05;;;;;;;2.57;1.50;;;23.20;99.90;;;;;;5058444;28;20506;-53
2023/06/04 10:34:32;;;;;;;3.00;1.50;;;23.50;99.90;;;;;;5056232;28;20590;-54
2023/06/04 10:36:58;;;;;;;2.30;1.40;;;23.90;99.90;;;;;;5063981;28;20633;-54
2023/06/04 10:39:35;;;;;;;2.50;1.50;;;24.10;99.90;;;;;;5056613;28;20461;-55
2023/06/04 10:42:07;;;;;;;3.33;1.90;;;24.40;99.90;;;;;;5064865;28;20490;-55
2023/06/04 10:44:46;;;;;;;2.03;1.30;;;24.40;99.90;;;;;;5043925;28;20436;-54
2023/06/04 10:47:20;;;;;;;1.90;1.60;;;24.50;99.90;;;;;;5051557;28;20967;-53
2023/06/04 10:49:46;;;;;;;3.00;2.43;;;24.50;99.90;;;;;;5041890;28;20444;-54
2023/06/04 10:52:12;;;;;;;2.17;1.60;;;24.40;99.90;;;;;;5063849;28;20438;-55
2023/06/04 10:54:37;;;;;;;2.50;1.57;;;24.30;99.90;;;;;;5060328;28;20174;-55
2023/06/04 10:57:16;;;;;;;2.07;1.77;;;24.30;99.90;;;;;;5050495;28;20590;-54
2023/06/04 10:59:54;;;;;;;2.10;1.40;;;24.10;99.90;;;;;;5046580;28;20236;-55
2023/06/04 11:02:20;;;;;;;3.20;2.20;;;23.90;99.90;;;;;;5056144;28;20447;-53
2023/06/04 11:04:46;;;;;;;2.60;2.00;;;23.90;99.90;;;;;;5067200;28;20455;-54
2023/06/04 11:07:12;;;;;;;1.97;1.70;;;23.90;99.90;;;;;;5062458;28;20543;-55
2023/06/04 11:09:47;;;;;;;4.23;1.73;;;23.90;99.90;;;;;;5062584;28;20492;-55
2023/06/04 11:12:13;;;;;;;3.37;1.37;;;23.80;99.90;;;;;;5048582;28;20188;-55
2023/06/04 11:14:39;;;;;;;1.60;1.47;;;24.10;99.90;;;;;;5064668;28;20444;-54
2023/06/04 11:17:12;;;;;;;4.70;2.20;;;24.60;99.90;;;;;;5061706;28;20182;-56
2023/06/04 11:19:38;;;;;;;2.80;1.80;;;24.70;99.90;;;;;;5044188;28;20963;-55
2023/06/04 11:22:05;;;;;;;2.07;1.60;;;24.70;99.90;;;;;;5056228;28;20460;-55
2023/06/04 11:24:32;;;;;;;3.43;1.73;;;24.50;99.90;;;;;;5055298;28;20441;-54
2023/06/04 11:27:02;;;;;;;3.40;1.60;;;24.50;99.90;;;;;;5052529;28;20473;-55
2023/06/04 11:29:28;;;;;;;2.47;1.67;;;24.60;99.90;;;;;;5055515;28;20449;-54
2023/06/04 11:31:53;;;;;;;2.27;1.43;;;24.70;99.90;;;;;;5053483;28;20932;-54
2023/06/04 11:34:27;;;;;;;1.77;1.30;;;24.60;99.90;;;;;;5052417;28;20231;-56
2023/06/04 11:36:53;;;;;;;2.47;1.50;;;24.40;99.90;;;;;;5060534;28;20673;-54
2023/06/04 11:39:20;;;;;;;2.43;1.50;;;24.30;99.90;;;;;;5055839;28;20437;-54
2023/06/04 11:41:46;;;;;;;1.97;1.63;;;24.30;99.90;;;;;;5054223;28;20946;-54
2023/06/04 11:44:12;;;;;;;2.70;1.80;;;24.50;99.90;;;;;;5052791;28;20449;-55
2023/06/04 11:46:44;;;;;;;5.10;1.80;;;24.30;99.90;;;;;;5041190;28;20452;-55
2023/06/04 11:49:17;;;;;;;2.10;1.60;;;24.30;99.90;;;;;;5053615;28;20499;-55
2023/06/04 11:51:51;;;;;;;2.30;2.10;;;24.40;99.90;;;;;;5065089;28;20441;-54
2023/06/04 11:54:18;;;;;;;2.13;1.70;;;24.10;99.90;;;;;;5062192;28;20439;-55
2023/06/04 11:56:44;;;;;;;2.33;1.50;;;23.90;99.90;;;;;;5066421;28;20444;-55
2023/06/04 11:59:14;;;;;;;3.53;1.50;;;24.00;99.90;;;;;;5061327;28;20463;-54
2023/06/04 12:01:42;;;;;;;2.77;2.00;;;24.30;99.90;;;;;;5057582;28;20537;-55
2023/06/04 12:04:18;;;;;;;4.30;1.80;;;24.60;99.90;;;;;;5064818;28;20799;-56
2023/06/04 12:06:56;;;;;;;2.53;1.80;;;24.70;99.90;;;;;;5053730;28;20865;-55
2023/06/04 12:09:24;;;;;;;1.90;1.40;;;24.50;99.90;;;;;;5056929;28;20467;-56
2023/06/04 12:11:49;;;;;;;2.07;1.20;;;24.30;99.90;;;;;;5053140;28;20437;-55
2023/06/04 12:14:18;;;;;;;1.90;1.63;;;24.20;99.90;;;;;;5054462;28;20444;-54
2023/06/04 12:16:58;;;;;;;2.07;1.50;;;24.20;99.90;;;;;;5060396;28;20194;-55
2023/06/04 12:19:26;;;;;;;4.83;1.67;;;24.30;99.90;;;;;;5063074;28;20493;-56
2023/06/04 12:22:07;;;;;;;4.77;1.60;;;24.60;99.90;;;;;;5058904;28;20451;-55
2023/06/04 12:24:37;;;;;;;1.83;1.50;;;24.70;99.90;;;;;;5066789;28;20531;-54
2023/06/04 12:27:08;;;;;;;2.60;2.10;;;24.70;99.90;;;;;;5053501;28;20456;-55
2023/06/04 12:29:34;;;;;;;3.67;1.87;;;24.80;99.90;;;;;;5055024;28;20452;-55
2023/06/04 12:32:11;;;;;;;4.87;1.73;;;24.80;99.90;;;;;;5058207;28;20877;-56
2023/06/04 12:34:37;;;;;;;2.83;1.83;;;24.80;99.90;;;;;;5054860;28;20440;-54
2023/06/04 12:37:05;;;;;;;4.83;1.50;;;24.50;99.90;;;;;;5056838;28;20495;-54
2023/06/04 12:39:36;;;;;;;2.60;1.63;;;24.40;99.90;;;;;;5058145;28;20447;-54
2023/06/04 12:42:02;;;;;;;1.93;1.60;;;24.20;99.90;;;;;;5062675;28;20481;-54
2023/06/04 12:44:28;;;;;;;2.33;1.67;;;24.30;99.90;;;;;;5059528;28;20972;-54
2023/06/04 12:46:54;;;;;;;2.53;1.60;;;24.40;99.90;;;;;;5056030;28;20475;-54
2023/06/04 12:49:19;;;;;;;3.33;1.70;;;24.60;99.90;;;;;;5056361;28;20178;-55